Time;durP1;ratioP1;P1;durP2;ratioP2;P2;SDS_P1;SDS_P2;PMS_P1;PMS_P2;Temp;Humidity;BMP_temperature;BMP_pressure;BME280_temperature;BME280_humidity;BME280_pressure;Samples;Min_cycle;Max_cycle;Signal;HPM_P1;HPM_P2
2024/01/18 00:01:55;;;;;;;15.05;7.10;;;1.90;99.90;;;;;;4953378;29;20039;-55
2024/01/18 00:04:22;;;;;;;23.33;9.60;;;1.90;99.90;;;;;;4953074;28;20066;-54
2024/01/18 00:06:50;;;;;;;23.75;11.30;;;2.00;99.90;;;;;;4953450;29;20035;-53
2024/01/18 00:09:17;;;;;;;24.98;12.02;;;1.90;99.90;;;;;;4939012;29;20058;-52
2024/01/18 00:11:44;;;;;;;27.20;13.45;;;1.90;99.90;;;;;;4952963;28;20043;-54
2024/01/18 00:14:11;;;;;;;33.53;14.60;;;1.90;99.90;;;;;;4953298;28;20053;-52
2024/01/18 00:16:38;;;;;;;31.70;12.95;;;1.90;99.90;;;;;;4951613;29;20053;-53
2024/01/18 00:19:07;;;;;;;28.15;12.57;;;1.90;99.90;;;;;;4950820;29;20047;-54
2024/01/18 00:21:34;;;;;;;24.05;10.93;;;1.90;99.90;;;;;;4935987;29;20081;-54
2024/01/18 00:24:01;;;;;;;17.33;9.57;;;1.80;99.90;;;;;;4953123;28;20106;-57
2024/01/18 00:26:28;;;;;;;15.05;8.82;;;1.80;99.90;;;;;;4947925;29;20039;-54
2024/01/18 00:28:54;;;;;;;10.45;5.65;;;1.90;99.90;;;;;;4953007;29;20039;-53
2024/01/18 00:31:21;;;;;;;16.90;8.57;;;1.80;99.90;;;;;;4942759;29;20050;-54
2024/01/18 00:33:48;;;;;;;16.70;8.13;;;1.90;99.90;;;;;;4943140;29;20050;-57
2024/01/18 00:36:15;;;;;;;18.00;9.40;;;1.90;99.90;;;;;;4951683;29;20045;-53
2024/01/18 00:38:42;;;;;;;16.80;9.25;;;1.90;99.90;;;;;;4952849;29;20098;-55
2024/01/18 00:41:09;;;;;;;14.55;8.38;;;1.90;99.90;;;;;;4944366;29;20047;-55
2024/01/18 00:43:36;;;;;;;13.73;7.85;;;1.90;99.90;;;;;;4952313;28;20046;-53
2024/01/18 00:46:04;;;;;;;16.20;8.52;;;1.90;99.90;;;;;;4951902;29;20054;-55
2024/01/18 00:48:31;;;;;;;18.58;7.45;;;1.90;99.90;;;;;;4950848;29;20045;-56
2024/01/18 00:50:58;;;;;;;13.57;7.57;;;1.90;99.90;;;;;;4953278;29;20046;-55
2024/01/18 00:53:26;;;;;;;14.65;7.07;;;2.00;99.90;;;;;;4948418;28;20051;-55
2024/01/18 00:55:52;;;;;;;14.98;7.25;;;2.00;99.90;;;;;;4940689;29;20392;-53
2024/01/18 00:58:19;;;;;;;11.48;7.30;;;2.00;99.90;;;;;;4953731;28;20557;-54
2024/01/18 01:00:47;;;;;;;12.43;7.55;;;2.00;99.90;;;;;;4946589;29;20039;-53
2024/01/18 01:03:14;;;;;;;16.30;8.45;;;2.00;99.90;;;;;;4948790;29;20044;-55
2024/01/18 01:05:41;;;;;;;14.70;9.35;;;1.90;99.90;;;;;;4948948;28;20039;-52
2024/01/18 01:08:08;;;;;;;16.42;9.27;;;1.90;99.90;;;;;;4949939;29;20122;-52
2024/01/18 01:10:35;;;;;;;14.65;8.50;;;1.90;99.90;;;;;;4950201;29;20036;-53
2024/01/18 01:13:01;;;;;;;13.40;6.72;;;1.90;99.90;;;;;;4948184;29;20046;-57
2024/01/18 01:15:28;;;;;;;17.80;9.52;;;1.90;99.90;;;;;;4952098;28;20476;-53
2024/01/18 01:17:55;;;;;;;15.70;8.65;;;1.90;99.90;;;;;;4952723;29;20087;-54
2024/01/18 01:20:22;;;;;;;14.13;9.00;;;1.90;99.90;;;;;;4944030;29;20565;-55
2024/01/18 01:22:49;;;;;;;12.48;6.25;;;1.80;99.90;;;;;;4953016;28;20481;-52
2024/01/18 01:25:15;;;;;;;15.82;8.70;;;1.90;99.90;;;;;;4955656;28;20058;-55
2024/01/18 01:27:43;;;;;;;;;;;1.80;99.90;;;;;;4948907;29;20043;-54
2024/01/18 01:30:11;;;;;;;18.95;9.23;;;1.80;99.90;;;;;;4956330;29;19980;-52
2024/01/18 01:32:38;;;;;;;19.23;9.77;;;1.80;99.90;;;;;;4955446;29;20039;-55
2024/01/18 01:35:05;;;;;;;25.02;9.98;;;1.80;99.90;;;;;;4956262;28;20043;-53
2024/01/18 01:37:32;;;;;;;;;;;1.80;99.90;;;;;;4949094;29;20042;-55
2024/01/18 01:39:59;;;;;;;16.23;9.05;;;1.80;99.90;;;;;;4956061;29;19970;-52
2024/01/18 01:42:26;;;;;;;21.27;9.63;;;1.80;99.90;;;;;;4955658;29;20054;-55
2024/01/18 01:44:54;;;;;;;16.85;8.70;;;1.80;99.90;;;;;;4950640;29;20126;-53
2024/01/18 01:47:21;;;;;;;16.15;8.73;;;1.80;99.90;;;;;;4956044;29;20054;-52
2024/01/18 01:49:48;;;;;;;18.27;8.18;;;1.90;99.90;;;;;;4956069;29;20072;-52
2024/01/18 01:52:17;;;;;;;18.95;9.02;;;1.90;99.90;;;;;;4947882;29;20087;-52
2024/01/18 01:54:47;;;;;;;15.23;8.70;;;2.00;99.90;;;;;;4955299;28;20042;-55
2024/01/18 01:57:17;;;;;;;16.65;9.18;;;1.90;99.90;;;;;;4944988;28;20054;-52
2024/01/18 01:59:46;;;;;;;18.33;9.98;;;2.00;99.90;;;;;;4937533;29;20098;-53
2024/01/18 02:02:13;;;;;;;16.60;9.60;;;1.90;99.90;;;;;;4955369;29;20053;-53
2024/01/18 02:04:41;;;;;;;24.67;9.40;;;1.90;99.90;;;;;;4955498;28;20054;-56
2024/01/18 02:07:08;;;;;;;;;;;1.90;99.90;;;;;;4945226;29;20044;-54
2024/01/18 02:09:36;;;;;;;14.70;7.07;;;1.90;99.90;;;;;;4947023;29;19962;-52
2024/01/18 02:12:04;;;;;;;15.32;9.38;;;1.90;99.90;;;;;;4949429;29;20064;-57
2024/01/18 02:14:31;;;;;;;16.63;8.82;;;1.80;99.90;;;;;;4954515;28;20047;-56
2024/01/18 02:16:58;;;;;;;17.77;9.40;;;1.80;99.90;;;;;;4949213;29;20039;-52
2024/01/18 02:19:25;;;;;;;18.40;8.95;;;1.80;99.90;;;;;;4948851;29;20536;-55
2024/01/18 02:21:52;;;;;;;15.85;9.43;;;1.80;99.90;;;;;;4955024;29;20091;-54
2024/01/18 02:24:21;;;;;;;20.77;10.55;;;1.80;99.90;;;;;;4946765;28;20051;-53
2024/01/18 02:26:48;;;;;;;19.17;10.40;;;1.80;99.90;;;;;;4945096;29;20393;-53
2024/01/18 02:29:15;;;;;;;21.58;9.05;;;1.80;99.90;;;;;;4952140;29;20135;-54
2024/01/18 02:31:41;;;;;;;20.38;10.30;;;1.80;99.90;;;;;;4950787;29;20481;-53
2024/01/18 02:34:10;;;;;;;18.80;9.55;;;1.70;99.90;;;;;;4933244;28;20384;-54
2024/01/18 02:36:37;;;;;;;22.13;9.27;;;1.70;99.90;;;;;;4947844;29;20058;-52
2024/01/18 02:39:05;;;;;;;21.38;10.45;;;1.80;99.90;;;;;;4955209;29;20055;-55
2024/01/18 02:41:32;;;;;;;21.65;9.52;;;1.70;99.90;;;;;;4944458;29;20039;-56
2024/01/18 02:44:00;;;;;;;20.45;9.95;;;1.80;99.90;;;;;;4943989;28;20043;-54
2024/01/18 02:46:34;;;;;;;22.70;11.07;;;1.80;99.90;;;;;;4954852;29;20054;-57
2024/01/18 02:49:01;;;;;;;17.55;10.05;;;1.80;99.90;;;;;;4951204;29;20109;-52
2024/01/18 02:51:28;;;;;;;18.48;9.80;;;1.90;99.90;;;;;;4954803;29;20043;-53
2024/01/18 02:53:54;;;;;;;17.17;9.82;;;1.80;99.90;;;;;;4954480;28;20039;-56
2024/01/18 02:56:21;;;;;;;18.90;10.07;;;1.80;99.90;;;;;;4954412;29;20101;-57
2024/01/18 02:58:48;;;;;;;19.10;10.10;;;1.90;99.90;;;;;;4947602;29;20039;-57
2024/01/18 03:01:15;;;;;;;19.48;10.20;;;1.90;99.90;;;;;;4951060;29;20405;-52
2024/01/18 03:03:42;;;;;;;20.10;10.13;;;1.90;99.90;;;;;;4953580;28;20429;-57
2024/01/18 03:06:09;;;;;;;17.65;10.23;;;2.00;99.90;;;;;;4954504;29;20039;-52
2024/01/18 03:08:36;;;;;;;19.48;10.15;;;1.90;99.90;;;;;;4944437;29;20055;-55
2024/01/18 03:11:03;;;;;;;18.90;10.10;;;1.90;99.90;;;;;;4951483;29;20047;-57
2024/01/18 03:13:31;;;;;;;19.55;10.02;;;1.90;99.90;;;;;;4953244;29;20111;-57
2024/01/18 03:15:58;;;;;;;16.88;10.25;;;1.90;99.90;;;;;;4953364;29;20031;-55
2024/01/18 03:18:25;;;;;;;17.33;10.00;;;1.90;99.90;;;;;;4954234;29;20053;-52
2024/01/18 03:20:52;;;;;;;21.30;10.50;;;1.90;99.90;;;;;;4950401;29;20049;-53
2024/01/18 03:23:18;;;;;;;20.10;10.57;;;2.00;99.90;;;;;;4953949;29;20126;-53
2024/01/18 03:25:45;;;;;;;17.95;10.18;;;2.00;99.90;;;;;;4946310;29;20565;-56
2024/01/18 03:28:12;;;;;;;16.23;9.93;;;2.00;99.90;;;;;;4950998;29;20110;-55
2024/01/18 03:30:40;;;;;;;14.00;7.40;;;2.00;99.90;;;;;;4951234;29;20047;-55
2024/01/18 03:33:07;;;;;;;21.13;10.38;;;2.10;99.90;;;;;;4948512;29;20042;-52
2024/01/18 03:35:34;;;;;;;18.90;9.68;;;2.10;99.90;;;;;;4946106;28;20504;-53
2024/01/18 03:38:01;;;;;;;18.70;9.50;;;2.10;99.90;;;;;;4954045;29;20051;-56
2024/01/18 03:40:28;;;;;;;13.57;6.63;;;2.10;99.90;;;;;;4954167;29;20405;-52
2024/01/18 03:42:54;;;;;;;18.10;9.65;;;2.10;99.90;;;;;;4949792;29;20070;-57
2024/01/18 03:45:21;;;;;;;13.43;6.40;;;2.10;99.90;;;;;;4953856;28;20057;-55
2024/01/18 03:47:48;;;;;;;17.90;9.05;;;2.00;99.90;;;;;;4944945;29;20043;-53
2024/01/18 03:50:15;;;;;;;20.50;11.27;;;2.00;99.90;;;;;;4953971;29;20051;-54
2024/01/18 03:52:42;;;;;;;19.88;10.93;;;2.00;99.90;;;;;;4944534;29;20076;-56
2024/01/18 03:55:09;;;;;;;19.55;10.32;;;2.00;99.90;;;;;;4953532;28;20046;-54
2024/01/18 03:57:37;;;;;;;15.63;9.38;;;2.00;99.90;;;;;;4943140;29;20134;-56
2024/01/18 04:00:05;;;;;;;15.90;8.68;;;2.00;99.90;;;;;;4944547;29;20055;-54
2024/01/18 04:02:34;;;;;;;18.95;10.35;;;2.10;99.90;;;;;;4961269;28;20042;-52
2024/01/18 04:05:01;;;;;;;;;;;2.10;99.90;;;;;;4953514;28;20126;-54
2024/01/18 04:07:27;;;;;;;17.50;9.75;;;2.10;99.90;;;;;;4945048;29;19922;-55
2024/01/18 04:09:54;;;;;;;18.92;10.55;;;2.10;99.90;;;;;;4950049;29;20031;-54
2024/01/18 04:12:21;;;;;;;17.13;9.23;;;2.10;99.90;;;;;;4953073;29;20051;-56
2024/01/18 04:14:48;;;;;;;16.67;9.55;;;2.10;99.90;;;;;;4944864;29;20043;-53
2024/01/18 04:17:16;;;;;;;17.13;9.80;;;2.10;99.90;;;;;;4953089;29;20548;-56
2024/01/18 04:19:42;;;;;;;20.73;10.40;;;2.00;99.90;;;;;;4946856;29;20126;-56
2024/01/18 04:22:09;;;;;;;17.05;10.35;;;2.00;99.90;;;;;;4949733;29;20050;-55
2024/01/18 04:24:36;;;;;;;19.42;10.63;;;2.00;99.90;;;;;;4952315;28;20058;-58
2024/01/18 04:27:03;;;;;;;20.02;9.93;;;2.00;99.90;;;;;;4950801;29;20059;-55
2024/01/18 04:29:31;;;;;;;19.45;9.32;;;2.00;99.90;;;;;;4945542;29;20044;-57
2024/01/18 04:31:58;;;;;;;17.95;9.48;;;2.10;99.90;;;;;;4949286;29;20031;-57
2024/01/18 04:34:25;;;;;;;13.90;7.32;;;2.20;99.90;;;;;;4945283;28;20039;-55
2024/01/18 04:36:52;;;;;;;16.90;9.63;;;2.20;99.90;;;;;;4952874;29;20042;-57
2024/01/18 04:39:18;;;;;;;16.67;9.88;;;2.20;99.90;;;;;;4951759;29;20404;-57
2024/01/18 04:41:45;;;;;;;15.60;8.52;;;2.20;99.90;;;;;;4950365;29;20044;-57
2024/01/18 04:44:13;;;;;;;11.80;5.93;;;2.30;99.90;;;;;;4948363;29;20035;-56
2024/01/18 04:46:40;;;;;;;15.13;9.85;;;2.30;99.90;;;;;;4947087;29;20043;-57
2024/01/18 04:49:07;;;;;;;;;;;2.30;99.90;;;;;;4951007;29;20118;-56
2024/01/18 04:51:34;;;;;;;18.88;9.32;;;2.40;99.90;;;;;;4947685;28;20315;-54
2024/01/18 04:54:01;;;;;;;;;;;2.30;99.90;;;;;;4952753;28;20048;-52
2024/01/18 04:56:28;;;;;;;18.52;10.18;;;2.30;99.90;;;;;;4952722;29;20349;-54
2024/01/18 04:58:56;;;;;;;15.90;9.77;;;2.30;99.90;;;;;;4951368;28;20400;-52
2024/01/18 05:01:22;;;;;;;26.42;12.75;;;2.30;99.90;;;;;;4951424;29;20381;-55
2024/01/18 05:03:49;;;;;;;23.95;13.52;;;2.30;99.90;;;;;;4954891;28;20035;-54
2024/01/18 05:06:16;;;;;;;20.88;11.70;;;2.30;99.90;;;;;;4954271;29;20039;-58
2024/01/18 05:08:45;;;;;;;18.50;10.50;;;2.30;99.90;;;;;;4952257;28;20054;-54
2024/01/18 05:11:12;;;;;;;20.73;10.20;;;2.30;99.90;;;;;;4954114;29;20043;-57
2024/01/18 05:13:39;;;;;;;13.27;7.40;;;2.30;99.90;;;;;;4954930;28;20072;-57
2024/01/18 05:16:06;;;;;;;19.58;9.93;;;2.20;99.90;;;;;;4954448;29;20074;-57
2024/01/18 05:18:32;;;;;;;19.67;10.15;;;2.20;99.90;;;;;;4946928;29;20042;-56
2024/01/18 05:20:59;;;;;;;17.05;9.82;;;2.20;99.90;;;;;;4951382;28;20127;-52
2024/01/18 05:23:26;;;;;;;19.85;10.50;;;2.20;99.90;;;;;;4953431;29;20047;-54
2024/01/18 05:25:53;;;;;;;17.52;10.95;;;2.30;99.90;;;;;;4952024;28;20107;-55
2024/01/18 05:28:20;;;;;;;26.10;11.43;;;2.30;99.90;;;;;;4951004;29;20042;-56
2024/01/18 05:30:50;;;;;;;21.33;11.57;;;2.30;99.90;;;;;;4945011;29;20043;-55
2024/01/18 05:33:18;;;;;;;19.95;11.70;;;2.30;99.90;;;;;;4935649;29;20049;-55
2024/01/18 05:35:45;;;;;;;17.85;10.02;;;2.30;99.90;;;;;;4948149;28;20091;-52
2024/01/18 05:38:11;;;;;;;21.65;11.50;;;2.30;99.90;;;;;;4951907;29;20058;-53
2024/01/18 05:40:38;;;;;;;22.45;12.18;;;2.30;99.90;;;;;;4947883;29;20043;-56
2024/01/18 05:43:05;;;;;;;14.35;8.15;;;2.20;99.90;;;;;;4955051;29;20050;-55
2024/01/18 05:45:32;;;;;;;21.05;11.38;;;2.20;99.90;;;;;;4955528;28;20090;-58
2024/01/18 05:48:01;;;;;;;19.60;11.90;;;2.20;99.90;;;;;;4950655;28;20397;-55
2024/01/18 05:50:28;;;;;;;21.38;12.02;;;2.10;99.90;;;;;;4951598;29;20042;-56
2024/01/18 05:52:55;;;;;;;19.80;12.10;;;2.10;99.90;;;;;;4938628;29;20454;-53
2024/01/18 05:55:22;;;;;;;26.55;12.68;;;2.10;99.90;;;;;;4932429;29;20574;-57
2024/01/18 05:57:49;;;;;;;24.73;13.15;;;2.00;99.90;;;;;;4941285;29;20044;-55
2024/01/18 06:00:16;;;;;;;31.25;14.20;;;2.10;99.90;;;;;;4955603;29;20567;-55
2024/01/18 06:02:43;;;;;;;28.70;14.63;;;2.10;99.90;;;;;;4954948;29;20078;-54
2024/01/18 06:05:11;;;;;;;28.92;13.95;;;2.10;99.90;;;;;;4954863;28;20413;-56
2024/01/18 06:07:38;;;;;;;26.88;14.95;;;2.10;99.90;;;;;;4950707;29;20043;-53
2024/01/18 06:10:06;;;;;;;26.23;13.82;;;2.10;99.90;;;;;;4955616;28;20043;-54
2024/01/18 06:12:32;;;;;;;32.47;13.70;;;2.10;99.90;;;;;;4955416;29;20050;-53
2024/01/18 06:15:00;;;;;;;24.60;13.25;;;2.10;99.90;;;;;;4952543;28;20043;-55
2024/01/18 06:17:27;;;;;;;26.95;13.70;;;2.10;99.90;;;;;;4955277;29;20051;-57
2024/01/18 06:19:55;;;;;;;27.00;12.85;;;2.20;99.90;;;;;;4952475;29;20051;-54
2024/01/18 06:22:21;;;;;;;23.60;12.80;;;2.10;99.90;;;;;;4954458;29;20523;-56
2024/01/18 06:24:48;;;;;;;26.83;12.80;;;2.10;99.90;;;;;;4953567;28;20547;-54
2024/01/18 06:27:15;;;;;;;23.92;13.20;;;2.20;99.90;;;;;;4948505;29;20114;-55
2024/01/18 06:29:42;;;;;;;24.95;13.43;;;2.20;99.90;;;;;;4951582;29;20130;-55
2024/01/18 06:32:09;;;;;;;26.20;14.23;;;2.30;99.90;;;;;;4929982;29;20043;-57
2024/01/18 06:34:36;;;;;;;19.00;11.57;;;2.30;99.90;;;;;;4947688;28;20052;-54
2024/01/18 06:37:03;;;;;;;22.73;12.55;;;2.30;99.90;;;;;;4946747;28;20495;-53
2024/01/18 06:39:30;;;;;;;22.98;11.88;;;2.20;99.90;;;;;;4953523;29;20523;-56
2024/01/18 06:41:56;;;;;;;22.00;12.95;;;2.20;99.90;;;;;;4954625;29;20527;-55
2024/01/18 06:44:23;;;;;;;23.05;12.05;;;2.20;99.90;;;;;;4954877;28;20114;-55
2024/01/18 06:46:50;;;;;;;24.15;12.95;;;2.30;99.90;;;;;;4954785;29;20050;-55
2024/01/18 06:49:17;;;;;;;27.55;13.95;;;2.30;99.90;;;;;;4948832;29;20039;-52
2024/01/18 06:51:44;;;;;;;24.98;13.88;;;2.30;99.90;;;;;;4955129;28;20091;-56
2024/01/18 06:54:11;;;;;;;28.80;15.20;;;2.30;99.90;;;;;;4961305;28;20035;-54
2024/01/18 06:56:38;;;;;;;33.40;17.63;;;2.30;99.90;;;;;;4954533;29;20063;-55
2024/01/18 06:59:05;;;;;;;31.80;16.02;;;2.30;99.90;;;;;;4951680;29;20036;-54
2024/01/18 07:01:33;;;;;;;26.77;13.68;;;2.20;99.90;;;;;;4948362;29;20130;-55
2024/01/18 07:04:00;;;;;;;26.48;13.07;;;2.20;99.90;;;;;;4952933;28;20031;-57
2024/01/18 07:06:27;;;;;;;24.00;13.27;;;2.20;99.90;;;;;;4954043;29;20124;-56
2024/01/18 07:08:54;;;;;;;26.92;14.43;;;2.10;99.90;;;;;;4936832;29;20091;-54
2024/01/18 07:11:21;;;;;;;29.23;15.27;;;2.20;99.90;;;;;;4948574;29;20099;-54
2024/01/18 07:13:48;;;;;;;32.10;15.75;;;2.20;99.90;;;;;;4953295;28;20118;-54
2024/01/18 07:16:14;;;;;;;25.70;14.60;;;2.20;99.90;;;;;;4954006;29;20106;-55
2024/01/18 07:18:41;;;;;;;23.98;13.75;;;2.20;99.90;;;;;;4946158;29;20054;-56
2024/01/18 07:21:08;;;;;;;22.27;13.45;;;2.30;99.90;;;;;;4952196;28;20095;-55
2024/01/18 07:23:35;;;;;;;28.45;13.80;;;2.30;99.90;;;;;;4946298;29;20059;-54
2024/01/18 07:26:02;;;;;;;32.20;14.73;;;2.30;99.90;;;;;;4949384;29;20052;-52
2024/01/18 07:28:29;;;;;;;28.40;15.10;;;2.40;99.90;;;;;;4948475;29;20043;-53
2024/01/18 07:30:56;;;;;;;25.90;15.73;;;2.40;99.90;;;;;;4942395;29;20031;-56
2024/01/18 07:33:24;;;;;;;33.00;18.08;;;2.40;99.90;;;;;;4947115;29;20031;-57
2024/01/18 07:35:51;;;;;;;31.25;15.75;;;2.40;99.90;;;;;;4948535;28;20396;-52
2024/01/18 07:38:17;;;;;;;21.80;11.50;;;2.50;99.90;;;;;;4953955;29;20050;-55
2024/01/18 07:40:44;;;;;;;24.25;14.32;;;2.50;99.90;;;;;;4953636;29;20058;-56
2024/01/18 07:43:11;;;;;;;22.63;9.88;;;2.50;99.90;;;;;;4945187;29;20043;-55
2024/01/18 07:45:38;;;;;;;30.50;15.68;;;2.60;99.90;;;;;;4953524;28;20043;-56
2024/01/18 07:48:05;;;;;;;29.88;15.23;;;2.60;99.90;;;;;;4953488;29;20039;-55
2024/01/18 07:50:32;;;;;;;28.83;15.02;;;2.60;99.90;;;;;;4945643;29;20039;-54
2024/01/18 07:53:04;;;;;;;31.13;15.55;;;2.70;99.90;;;;;;4944165;29;20066;-55
2024/01/18 07:55:30;;;;;;;33.42;16.08;;;2.80;99.90;;;;;;4948078;29;20456;-55
2024/01/18 07:57:57;;;;;;;33.92;15.48;;;2.80;99.90;;;;;;4934313;29;20058;-55
2024/01/18 08:00:25;;;;;;;32.53;16.02;;;2.80;99.90;;;;;;4941554;29;20055;-52
2024/01/18 08:02:51;;;;;;;;;;;2.90;99.90;;;;;;4950530;28;20130;-53
2024/01/18 08:05:18;;;;;;;34.25;17.63;;;2.90;99.90;;;;;;4953144;28;19929;-52
2024/01/18 08:07:45;;;;;;;31.42;16.67;;;2.90;99.90;;;;;;4953062;29;20099;-55
2024/01/18 08:10:12;;;;;;;24.63;14.35;;;2.90;99.90;;;;;;4947582;29;20035;-58
2024/01/18 08:12:42;;;;;;;26.77;14.07;;;3.00;99.90;;;;;;4953012;29;20050;-52
2024/01/18 08:15:11;;;;;;;26.52;14.40;;;3.00;99.90;;;;;;4953222;28;20047;-53
2024/01/18 08:17:38;;;;;;;29.05;14.88;;;3.00;99.90;;;;;;4944209;29;20469;-55
2024/01/18 08:20:12;;;;;;;24.80;13.05;;;3.10;99.90;;;;;;4937523;29;20122;-56
2024/01/18 08:22:40;;;;;;;25.70;14.32;;;3.10;99.90;;;;;;4952686;28;20043;-54
2024/01/18 08:25:08;;;;;;;30.27;15.35;;;3.20;99.90;;;;;;4952764;28;20139;-57
2024/01/18 08:27:35;;;;;;;26.58;15.07;;;3.20;99.90;;;;;;4947011;29;20482;-57
2024/01/18 08:30:03;;;;;;;22.40;13.93;;;3.30;99.90;;;;;;4950350;29;20047;-53
2024/01/18 08:32:34;;;;;;;27.15;15.25;;;3.20;99.90;;;;;;4952326;29;20370;-54
2024/01/18 08:35:01;;;;;;;31.08;15.90;;;3.30;99.90;;;;;;4944828;28;20394;-55
2024/01/18 08:37:28;;;;;;;32.70;17.40;;;3.30;99.90;;;;;;4951575;29;20486;-56
2024/01/18 08:39:55;;;;;;;35.20;19.38;;;3.40;99.90;;;;;;4951932;29;20121;-56
2024/01/18 08:42:22;;;;;;;33.03;16.98;;;3.40;99.90;;;;;;4948786;29;20386;-54
2024/01/18 08:44:49;;;;;;;28.30;16.77;;;3.50;99.90;;;;;;4948314;28;20139;-55
2024/01/18 08:47:16;;;;;;;28.98;16.27;;;3.50;99.90;;;;;;4951442;29;20058;-56
2024/01/18 08:49:46;;;;;;;31.00;16.35;;;3.60;99.90;;;;;;4945742;29;20040;-53
2024/01/18 08:52:13;;;;;;;30.10;17.10;;;3.50;99.90;;;;;;4950817;29;20468;-53
2024/01/18 08:54:42;;;;;;;26.27;16.42;;;3.50;99.90;;;;;;4934698;29;20500;-53
2024/01/18 08:57:09;;;;;;;40.08;20.17;;;3.50;99.90;;;;;;4951675;29;20055;-54
2024/01/18 08:59:36;;;;;;;38.33;19.33;;;3.60;99.90;;;;;;4936686;29;20091;-58
2024/01/18 09:02:03;;;;;;;49.28;23.60;;;3.60;99.90;;;;;;4946938;29;20058;-53
2024/01/18 09:04:43;;;;;;;37.00;19.48;;;3.50;99.90;;;;;;4950739;28;20054;-55
2024/01/18 09:07:14;;;;;;;36.40;18.23;;;3.60;99.90;;;;;;4951627;29;20440;-56
2024/01/18 09:09:41;;;;;;;34.78;16.83;;;3.60;99.90;;;;;;4951724;29;20485;-54
2024/01/18 09:12:08;;;;;;;26.65;14.88;;;3.70;99.90;;;;;;4937297;28;20048;-53
2024/01/18 09:14:35;;;;;;;25.48;14.70;;;3.70;99.90;;;;;;4951643;28;20487;-55
2024/01/18 09:17:02;;;;;;;35.78;17.15;;;3.80;99.90;;;;;;4950630;29;20127;-52
2024/01/18 09:19:30;;;;;;;27.98;15.93;;;3.90;99.90;;;;;;4942225;29;20389;-52
2024/01/18 09:21:57;;;;;;;27.90;16.73;;;3.90;99.90;;;;;;4948123;29;20305;-53
2024/01/18 09:24:24;;;;;;;26.85;14.88;;;3.90;99.90;;;;;;4951647;28;20049;-55
2024/01/18 09:26:51;;;;;;;31.30;16.02;;;3.90;99.90;;;;;;4942751;29;20039;-54
2024/01/18 09:29:17;;;;;;;33.08;16.50;;;3.80;99.90;;;;;;4951050;29;20052;-54
2024/01/18 09:31:44;;;;;;;50.53;22.02;;;3.80;99.90;;;;;;4950666;29;20042;-52
2024/01/18 09:34:11;;;;;;;35.97;18.67;;;3.80;99.90;;;;;;4915922;29;1038070;-55
2024/01/18 09:36:38;;;;;;;29.30;17.23;;;3.70;99.90;;;;;;4949246;29;20138;-55
2024/01/18 09:39:08;;;;;;;31.42;18.50;;;3.80;99.90;;;;;;4941590;29;20139;-53
2024/01/18 09:41:35;;;;;;;30.20;15.60;;;3.90;99.90;;;;;;4934682;29;20051;-55
2024/01/18 09:44:03;;;;;;;30.63;16.83;;;3.80;99.90;;;;;;4951498;28;20106;-56
2024/01/18 09:46:31;;;;;;;28.42;16.75;;;3.90;99.90;;;;;;4951566;29;20095;-52
2024/01/18 09:48:58;;;;;;;31.40;18.63;;;3.90;99.90;;;;;;4946855;29;20047;-52
2024/01/18 09:51:31;;;;;;;32.72;17.98;;;4.00;99.90;;;;;;4948778;29;20075;-56
2024/01/18 09:54:00;;;;;;;29.73;16.35;;;4.00;99.90;;;;;;4955330;28;20074;-52
2024/01/18 09:56:28;;;;;;;32.42;18.05;;;4.00;99.90;;;;;;4943326;29;20054;-55
2024/01/18 09:58:55;;;;;;;28.73;16.33;;;4.00;99.90;;;;;;4937562;29;20451;-54
2024/01/18 10:01:24;;;;;;;29.38;16.48;;;4.00;99.90;;;;;;4954995;29;20043;-57
2024/01/18 10:03:51;;;;;;;36.45;18.23;;;3.90;99.90;;;;;;4952977;28;20082;-56
2024/01/18 10:06:19;;;;;;;37.88;18.40;;;3.90;99.90;;;;;;4955198;29;20079;-55
2024/01/18 10:08:52;;;;;;;35.35;17.98;;;3.90;99.90;;;;;;4949334;29;20463;-53
2024/01/18 10:11:19;;;;;;;30.10;17.30;;;3.90;99.90;;;;;;4939695;29;20047;-56
2024/01/18 10:13:57;;;;;;;32.97;17.92;;;3.90;99.90;;;;;;4954377;28;20050;-54
2024/01/18 10:16:28;;;;;;;31.48;17.67;;;3.90;99.90;;;;;;4954562;28;20035;-53
2024/01/18 10:19:06;;;;;;;33.45;16.90;;;3.90;99.90;;;;;;4952947;29;20047;-52
2024/01/18 10:21:34;;;;;;;;;;;3.90;99.90;;;;;;4954773;29;20082;-52
2024/01/18 10:24:03;;;;;;;34.55;19.33;;;3.90;99.90;;;;;;4939390;29;20407;-56
2024/01/18 10:26:31;;;;;;;36.78;18.42;;;3.90;99.90;;;;;;4947386;29;20377;-56
2024/01/18 10:28:58;;;;;;;33.53;18.70;;;3.90;99.90;;;;;;4941916;29;20465;-57
2024/01/18 10:31:31;;;;;;;36.00;18.45;;;3.80;99.90;;;;;;4938408;29;20122;-55
2024/01/18 10:33:58;;;;;;;36.00;18.90;;;3.80;99.90;;;;;;4954633;28;20404;-54
2024/01/18 10:36:26;;;;;;;39.17;20.90;;;3.80;99.90;;;;;;4933752;29;20054;-53
2024/01/18 10:38:53;;;;;;;31.20;16.73;;;3.80;99.90;;;;;;4943846;28;20051;-56
2024/01/18 10:41:20;;;;;;;34.13;16.40;;;3.90;99.90;;;;;;4953401;28;20054;-55
2024/01/18 10:43:48;;;;;;;34.10;17.10;;;4.20;99.90;;;;;;4953694;28;20039;-52
2024/01/18 10:46:15;;;;;;;29.05;14.48;;;4.50;99.90;;;;;;4955054;29;20043;-53
2024/01/18 10:48:47;;;;;;;29.15;16.23;;;4.70;99.90;;;;;;4942468;29;20428;-54
2024/01/18 10:51:14;;;;;;;29.08;14.27;;;5.00;99.90;;;;;;4954709;28;20099;-53
2024/01/18 10:53:43;;;;;;;29.30;15.30;;;5.20;99.90;;;;;;4945007;28;20127;-56
2024/01/18 10:56:12;;;;;;;24.85;14.10;;;5.20;99.90;;;;;;4933799;29;20623;-55
2024/01/18 10:58:39;;;;;;;26.52;15.90;;;5.40;99.90;;;;;;4954229;28;20127;-56
2024/01/18 11:01:07;;;;;;;;;;;5.50;99.90;;;;;;4954195;28;20043;-54
2024/01/18 11:03:35;;;;;;;33.10;18.95;;;5.60;99.90;;;;;;4945791;28;20013;-54
2024/01/18 11:06:09;;;;;;;39.08;20.08;;;5.70;99.90;;;;;;4931258;29;20099;-56
2024/01/18 11:08:39;;;;;;;54.35;23.15;;;5.60;99.90;;;;;;4954274;29;20098;-55
2024/01/18 11:11:07;;;;;;;53.45;22.10;;;5.50;99.90;;;;;;4953595;29;20413;-56
2024/01/18 11:13:35;;;;;;;55.35;21.48;;;5.60;99.90;;;;;;4943563;28;20039;-55
2024/01/18 11:16:04;;;;;;;61.33;23.08;;;5.50;99.90;;;;;;4953076;28;20515;-54
2024/01/18 11:18:32;;;;;;;38.33;15.82;;;5.40;99.90;;;;;;4951130;28;20127;-56
2024/01/18 11:21:00;;;;;;;61.28;21.25;;;5.30;99.90;;;;;;4943018;29;20035;-56
2024/01/18 11:23:38;;;;;;;47.15;19.13;;;5.30;99.90;;;;;;4951133;28;20493;-53
2024/01/18 11:26:07;;;;;;;43.75;18.13;;;5.50;99.90;;;;;;4948156;29;20208;-53
2024/01/18 11:28:35;;;;;;;58.22;21.83;;;5.90;99.90;;;;;;4945962;29;20520;-55
2024/01/18 11:31:02;;;;;;;43.47;18.63;;;6.10;99.90;;;;;;4936722;29;20545;-53
2024/01/18 11:33:31;;;;;;;36.67;17.40;;;6.20;99.90;;;;;;4950481;29;20082;-56
2024/01/18 11:35:59;;;;;;;35.15;15.90;;;6.20;99.90;;;;;;4946342;29;20035;-52
2024/01/18 11:38:33;;;;;;;29.73;14.93;;;6.40;99.90;;;;;;4950180;28;20110;-55
2024/01/18 11:41:18;;;;;;;28.55;15.80;;;6.70;99.90;;;;;;4949019;29;20122;-56
2024/01/18 11:43:55;;;;;;;37.40;17.40;;;6.60;99.90;;;;;;4929515;28;20479;-53
2024/01/18 11:46:39;;;;;;;29.02;15.30;;;6.50;99.90;;;;;;4953469;28;20051;-53
2024/01/18 11:49:06;;;;;;;28.75;15.63;;;6.40;99.90;;;;;;4944055;29;20070;-54
2024/01/18 11:51:34;;;;;;;35.40;17.15;;;6.30;99.90;;;;;;4953009;28;20049;-53
2024/01/18 11:54:02;;;;;;;34.30;17.50;;;6.30;99.90;;;;;;4952503;28;20089;-52
2024/01/18 11:56:29;;;;;;;33.67;18.13;;;6.30;99.90;;;;;;4951637;29;20074;-52
2024/01/18 11:58:59;;;;;;;;;;;6.40;99.90;;;;;;4953601;29;20126;-52
2024/01/18 12:01:31;;;;;;;37.35;18.58;;;6.40;99.90;;;;;;4953326;29;20005;-54
2024/01/18 12:03:59;;;;;;;39.20;19.13;;;6.20;99.90;;;;;;4943822;28;20134;-53
2024/01/18 12:06:28;;;;;;;34.55;17.45;;;6.00;99.90;;;;;;4949530;29;20416;-53
2024/01/18 12:08:56;;;;;;;37.03;18.17;;;5.80;99.90;;;;;;4952901;28;20054;-52
2024/01/18 12:11:23;;;;;;;38.78;19.20;;;5.70;99.90;;;;;;4943933;29;20058;-55
2024/01/18 12:13:50;;;;;;;34.15;18.88;;;5.60;99.90;;;;;;4952809;28;20035;-53
2024/01/18 12:16:21;;;;;;;37.70;18.88;;;5.60;99.90;;;;;;4950790;29;20123;-53
2024/01/18 12:18:48;;;;;;;24.75;14.30;;;5.50;99.90;;;;;;4952775;29;20032;-55
2024/01/18 12:21:20;;;;;;;24.45;14.07;;;5.50;99.90;;;;;;4953525;29;20409;-55
2024/01/18 12:23:47;;;;;;;28.92;15.70;;;5.60;99.90;;;;;;4950127;28;20095;-55
2024/01/18 12:26:15;;;;;;;29.10;14.65;;;5.50;99.90;;;;;;4944134;28;20047;-57
2024/01/18 12:28:42;;;;;;;33.38;17.33;;;5.50;99.90;;;;;;4944975;29;20039;-55
2024/01/18 12:31:09;;;;;;;29.33;17.45;;;5.50;99.90;;;;;;4952953;29;20043;-55
2024/01/18 12:33:37;;;;;;;30.75;17.95;;;5.40;99.90;;;;;;4934799;28;20043;-53
2024/01/18 12:36:04;;;;;;;35.30;16.05;;;5.50;99.90;;;;;;4947817;28;20078;-53
2024/01/18 12:38:35;;;;;;;32.72;14.60;;;5.50;99.90;;;;;;4951159;28;20047;-56
2024/01/18 12:41:02;;;;;;;25.67;15.05;;;5.60;99.90;;;;;;4952958;29;20087;-53
2024/01/18 12:43:29;;;;;;;26.92;15.10;;;5.70;99.90;;;;;;4951381;29;20066;-54
2024/01/18 12:45:57;;;;;;;23.65;14.00;;;5.70;99.90;;;;;;4952674;28;20055;-54